Time;durP1;ratioP1;P1;durP2;ratioP2;P2;SDS_P1;SDS_P2;PMS_P1;PMS_P2;Temp;Humidity;BMP_temperature;BMP_pressure;BME280_temperature;BME280_humidity;BME280_pressure;Samples;Min_cycle;Max_cycle;Signal;HPM_P1;HPM_P2
2021/12/28 00:00:16;;;;;;;;;12.25;6.50;;;;;10.68;83.29;99088.38;5069201;28;45537;-71
2021/12/28 00:02:47;;;;;;;;;13.75;7.00;;;;;10.62;82.55;99062.28;5073539;28;45491;-71
2021/12/28 00:05:14;;;;;;;;;13.75;5.25;;;;;10.64;82.42;99052.44;5054254;28;47258;-68
2021/12/28 00:07:39;;;;;;;;;16.25;7.25;;;;;10.61;82.74;99048.19;5074163;28;45608;-71
2021/12/28 00:10:07;;;;;;;;;14.50;6.50;;;;;10.69;82.60;99047.72;5073440;28;45574;-71
2021/12/28 00:12:35;;;;;;;;;12.25;4.50;;;;;10.81;82.74;99086.66;5074613;28;45686;-70
2021/12/28 00:15:05;;;;;;;;;13.50;7.00;;;;;10.46;82.24;99014.75;5075000;28;45535;-71
2021/12/28 00:20:48;;;;;;;;;14.25;5.00;;;;;10.86;82.88;99075.81;4975842;28;45460;-71
2021/12/28 00:23:21;;;;;;;;;18.75;9.00;;;;;10.88;82.71;99071.25;4972681;28;45471;-71
2021/12/28 00:25:49;;;;;;;;;6.25;5.00;;;;;10.86;82.50;99063.41;4971620;28;46237;-71
2021/12/28 00:28:15;;;;;;;;;16.25;7.50;;;;;10.62;82.96;99020.81;4972396;28;45725;-70
2021/12/28 00:30:41;;;;;;;;;17.25;6.00;;;;;10.83;82.74;99050.38;4973264;28;45561;-71
2021/12/28 00:33:09;;;;;;;;;8.00;4.75;;;;;10.93;82.35;99066.53;4975142;28;45477;-70
2021/12/28 00:35:39;;;;;;;;;8.00;7.00;;;;;10.87;82.50;99051.88;4972636;28;46680;-70
2021/12/28 00:38:06;;;;;;;;;13.75;6.50;;;;;10.96;82.68;99062.84;4971866;28;45755;-70
2021/12/28 00:40:34;;;;;;;;;19.00;4.00;;;;;10.96;82.91;99060.19;4970341;28;45669;-70
2021/12/28 00:43:00;;;;;;;;;9.25;5.00;;;;;10.95;82.92;99056.72;4966875;28;45447;-70
2021/12/28 00:45:27;;;;;;;;;10.00;4.00;;;;;10.93;82.72;99066.53;4973207;28;45383;-70
2021/12/28 00:47:52;;;;;;;;;14.25;5.00;;;;;10.92;82.91;99062.19;4974107;28;45354;-70
2021/12/28 00:50:19;;;;;;;;;4.00;3.75;;;;;10.85;83.37;99043.19;4977952;28;45516;-71
2021/12/28 00:52:46;;;;;;;;;8.75;4.25;;;;;10.92;83.05;99059.53;5053261;28;45477;-70
2021/12/28 00:55:13;;;;;;;;;7.50;4.25;;;;;10.87;83.22;99051.88;5068056;28;45659;-70
2021/12/28 00:57:38;;;;;;;;;7.75;3.75;;;;;10.88;83.27;99050.06;5070123;28;45557;-70
2021/12/28 01:00:08;;;;;;;;;9.00;3.75;;;;;10.94;83.13;99056.78;5071652;28;45273;-68
2021/12/28 01:02:33;;;;;;;;;8.75;3.50;;;;;10.96;83.31;99057.53;5070721;28;45667;-68
2021/12/28 01:04:59;;;;;;;;;7.50;4.00;;;;;10.96;82.82;99066.34;5065913;28;45877;-68
2021/12/28 01:07:24;;;;;;;;;10.75;5.75;;;;;10.95;82.94;99055.84;5064682;27;45589;-68
2021/12/28 01:09:50;;;;;;;;;12.00;6.00;;;;;10.95;82.99;99066.44;5068666;28;45435;-70
2021/12/28 01:12:15;;;;;;;;;12.00;6.50;;;;;10.77;83.40;99037.53;5072606;27;45525;-70
2021/12/28 01:14:41;;;;;;;;;10.50;3.50;;;;;10.62;82.78;99014.69;5046235;28;46083;-70
2021/12/28 01:17:07;;;;;;;;;10.75;4.25;;;;;10.87;83.39;99058.97;5062033;28;45344;-70
2021/12/28 01:19:32;;;;;;;;;8.00;3.00;;;;;10.79;83.85;99043.56;5063743;28;45790;-71
2021/12/28 01:22:01;;;;;;;;;13.50;4.75;;;;;10.93;83.66;99068.31;5072773;28;46921;-71
2021/12/28 01:24:27;;;;;;;;;3.00;1.00;;;;;10.81;83.57;99038.19;5058896;28;45442;-71
2021/12/28 01:26:52;;;;;;;;;11.25;5.00;;;;;10.88;83.27;99056.25;5074080;28;45454;-71
2021/12/28 01:29:17;;;;;;;;;6.50;3.00;;;;;10.77;83.46;99034.03;5074754;28;45401;-71
2021/12/28 01:31:43;;;;;;;;;13.75;4.50;;;;;10.86;83.41;99044.91;5073740;28;45758;-71
2021/12/28 01:34:09;;;;;;;;;7.75;3.25;;;;;10.84;83.75;99035.34;5066288;28;47045;-70
2021/12/28 01:36:34;;;;;;;;;14.50;3.25;;;;;10.83;83.44;99033.66;5074558;28;45347;-70
2021/12/28 01:39:00;;;;;;;;;7.75;5.75;;;;;10.93;83.27;99050.66;5075546;28;45343;-71
2021/12/28 01:41:26;;;;;;;;;6.50;3.25;;;;;10.87;83.21;99045.75;5074427;28;45442;-70
2021/12/28 01:43:56;;;;;;;;;7.00;4.75;;;;;10.89;83.08;99050.00;5073804;28;46167;-70
2021/12/28 01:46:22;;;;;;;;;7.75;4.00;;;;;10.97;82.78;99053.94;5071186;28;45976;-71
2021/12/28 01:48:48;;;;;;;;;9.25;4.00;;;;;10.89;83.13;99052.63;5074434;28;45344;-71
2021/12/28 01:51:17;;;;;;;;;7.00;2.75;;;;;10.80;82.83;99037.34;5076334;28;45332;-71
2021/12/28 01:53:44;;;;;;;;;2.00;2.00;;;;;10.95;82.94;99058.50;5075619;28;46027;-71
2021/12/28 01:56:16;;;;;;;;;4.75;2.75;;;;;10.99;83.34;99070.59;5073169;28;45380;-71
2021/12/28 01:58:42;;;;;;;;;11.75;3.75;;;;;10.93;83.13;99063.88;5074354;28;45495;-71
2021/12/28 02:01:08;;;;;;;;;4.50;3.00;;;;;11.01;82.55;99082.78;5069863;28;45415;-71
2021/12/28 02:03:37;;;;;;;;;4.00;2.00;;;;;11.02;82.63;99081.84;5074354;28;45349;-71
2021/12/28 02:06:03;;;;;;;;;2.75;2.75;;;;;11.03;83.21;99077.38;5062464;28;45441;-71
2021/12/28 02:08:28;;;;;;;;;7.50;3.00;;;;;10.94;82.61;99062.91;5070549;28;45956;-71
2021/12/28 02:10:55;;;;;;;;;3.75;2.25;;;;;10.90;83.66;99062.28;5074003;28;45572;-71
2021/12/28 02:13:22;;;;;;;;;3.25;2.00;;;;;11.02;82.70;99081.00;5072381;28;46026;-71
2021/12/28 02:15:49;;;;;;;;;5.75;2.25;;;;;11.02;82.90;99073.03;5052924;28;46247;-71
2021/12/28 02:18:18;;;;;;;;;2.50;1.00;;;;;10.98;83.08;99075.03;5075518;28;45431;-71
2021/12/28 02:20:44;;;;;;;;;4.75;3.00;;;;;10.94;82.90;99057.63;5075020;28;45466;-71
2021/12/28 02:23:10;;;;;;;;;1.50;1.50;;;;;10.91;82.99;99064.00;5071714;28;45847;-71
2021/12/28 02:25:36;;;;;;;;;4.50;2.00;;;;;11.04;82.90;99073.81;5072765;28;45383;-70
2021/12/28 02:28:04;;;;;;;;;4.00;1.00;;;;;11.01;82.96;99074.00;5074005;28;45439;-70
2021/12/28 02:30:29;;;;;;;;;3.00;1.00;;;;;10.93;82.78;99066.53;5054225;28;45475;-70
2021/12/28 02:32:55;;;;;;;;;4.25;2.25;;;;;10.99;83.14;99081.19;5056773;28;47115;-70
2021/12/28 02:35:23;;;;;;;;;4.00;2.00;;;;;10.98;83.63;99082.13;5073949;28;45486;-70
2021/12/28 02:37:50;;;;;;;;;2.00;1.00;;;;;10.86;83.72;99054.63;5051868;28;45448;-70
2021/12/28 02:40:18;;;;;;;;;3.50;1.00;;;;;11.03;83.42;99080.91;5060517;28;45528;-70
2021/12/28 02:42:44;;;;;;;;;3.00;3.00;;;;;11.01;83.39;99064.25;5068628;28;46097;-70
2021/12/28 02:45:19;;;;;;;;;8.50;2.00;;;;;11.06;82.88;99090.44;5074182;28;45300;-70
2021/12/28 02:47:45;;;;;;;;;4.00;1.00;;;;;11.05;83.14;99091.38;5074441;28;45416;-71
2021/12/28 02:50:18;;;;;;;;;4.25;1.00;;;;;10.95;82.92;99063.81;5072325;28;45480;-71
2021/12/28 02:52:43;;;;;;;;;4.00;1.75;;;;;10.93;83.26;99061.22;5072962;28;45473;-71
2021/12/28 02:55:13;;;;;;;;;5.25;1.75;;;;;10.96;82.55;99068.97;5066957;28;45400;-71
2021/12/28 02:57:46;;;;;;;;;5.00;2.25;;;;;10.83;82.76;99053.03;5072914;28;45587;-71
2021/12/28 03:00:12;;;;;;;;;2.25;1.00;;;;;11.01;83.05;99088.09;5074183;28;45473;-71
2021/12/28 03:02:38;;;;;;;;;1.50;1.50;;;;;11.03;83.25;99087.97;5071501;28;46753;-71
2021/12/28 03:05:03;;;;;;;;;6.25;2.25;;;;;10.99;83.25;99073.25;5073237;28;45510;-70
2021/12/28 03:07:30;;;;;;;;;2.50;2.00;;;;;11.03;83.22;99072.09;5073097;28;45667;-70
2021/12/28 03:09:55;;;;;;;;;2.00;1.00;;;;;11.05;83.15;99080.78;5072826;28;45410;-70
2021/12/28 03:12:20;;;;;;;;;4.25;3.00;;;;;11.04;82.55;99076.47;5073751;28;46583;-70
2021/12/28 03:14:48;;;;;;;;;3.75;2.00;;;;;11.03;82.53;99074.72;5072720;27;45490;-70
2021/12/28 03:17:14;;;;;;;;;5.00;3.50;;;;;10.93;82.83;99061.22;5069545;28;45344;-70
2021/12/28 03:19:39;;;;;;;;;3.50;1.00;;;;;10.99;83.10;99062.66;5072809;28;45775;-70
2021/12/28 03:22:05;;;;;;;;;3.75;0.75;;;;;10.99;82.95;99074.09;5067374;28;47197;-70
2021/12/28 03:24:30;;;;;;;;;2.50;2.00;;;;;10.88;83.20;99056.25;5072708;28;45560;-70
2021/12/28 03:26:55;;;;;;;;;2.75;1.00;;;;;10.62;82.98;99009.38;5074998;28;46606;-71
2021/12/28 03:29:22;;;;;;;;;2.50;1.50;;;;;11.00;83.32;99075.81;5071721;28;45446;-71
2021/12/28 03:31:48;;;;;;;;;3.75;2.00;;;;;10.98;83.02;99063.59;5053441;28;48237;-71
2021/12/28 03:34:13;;;;;;;;;1.00;1.00;;;;;10.96;82.99;99057.53;5054359;28;46067;-71
2021/12/28 03:36:39;;;;;;;;;3.50;2.50;;;;;10.90;82.77;99040.25;5074939;28;45369;-71
2021/12/28 03:39:05;;;;;;;;;1.75;1.75;;;;;11.02;82.84;99054.50;5078540;28;45312;-70
2021/12/28 03:41:31;;;;;;;;;2.00;1.25;;;;;11.00;82.63;99059.03;5073700;28;46231;-70
2021/12/28 03:43:57;;;;;;;;;5.00;1.75;;;;;10.89;82.85;99054.44;5074121;28;45698;-70
2021/12/28 03:46:25;;;;;;;;;3.00;1.00;;;;;10.99;83.20;99070.59;5075631;28;45494;-70
2021/12/28 03:48:51;;;;;;;;;1.00;1.00;;;;;10.89;83.60;99043.84;5075914;28;45527;-70
2021/12/28 03:51:16;;;;;;;;;1.25;1.25;;;;;10.91;82.96;99042.81;5077720;28;46058;-70
2021/12/28 03:53:44;;;;;;;;;2.50;1.75;;;;;10.95;83.38;99042.63;5075524;28;45443;-71
2021/12/28 03:56:10;;;;;;;;;5.25;1.00;;;;;10.99;83.47;99052.06;5076223;28;45556;-70
2021/12/28 03:58:38;;;;;;;;;4.50;1.75;;;;;10.99;83.52;99046.75;5085292;28;45344;-70
2021/12/28 04:01:05;;;;;;;;;3.00;1.25;;;;;11.00;83.56;99051.09;5080215;28;45503;-70
2021/12/28 04:03:30;;;;;;;;;2.00;0.00;;;;;10.99;83.26;99052.06;5088123;28;45256;-70
2021/12/28 04:05:56;;;;;;;;;2.50;0.75;;;;;10.85;83.27;99035.25;5075747;28;45321;-71
2021/12/28 04:08:23;;;;;;;;;1.25;1.25;;;;;10.89;83.42;99036.75;5074132;28;45586;-71
2021/12/28 04:11:01;;;;;;;;;2.25;1.00;;;;;10.98;83.87;99051.22;5075595;28;46235;-71
2021/12/28 04:13:26;;;;;;;;;2.50;0.00;;;;;10.91;83.21;99052.53;5075361;28;45603;-70
2021/12/28 04:15:52;;;;;;;;;1.75;1.75;;;;;10.96;83.86;99054.91;5074433;28;45514;-71
2021/12/28 04:18:19;;;;;;;;;2.00;1.00;;;;;10.82;83.55;99019.56;5076956;28;45440;-70
2021/12/28 04:20:45;;;;;;;;;1.75;1.75;;;;;10.84;83.76;99030.91;5075101;28;46328;-70
2021/12/28 04:23:10;;;;;;;;;4.25;2.00;;;;;10.97;83.81;99051.31;5075552;28;45233;-70
2021/12/28 04:25:35;;;;;;;;;2.00;2.00;;;;;10.95;83.82;99038.19;5074139;27;46070;-70
2021/12/28 04:28:01;;;;;;;;;4.50;2.50;;;;;10.84;83.69;99025.59;5076166;28;45324;-70
2021/12/28 04:30:26;;;;;;;;;3.25;1.00;;;;;10.95;83.10;99021.44;5067117;28;47064;-70
2021/12/28 04:32:52;;;;;;;;;2.00;2.00;;;;;10.73;83.89;98998.97;5074836;28;45905;-70
2021/12/28 04:35:17;;;;;;;;;2.25;2.25;;;;;11.00;83.82;99029.94;5075781;28;45461;-71
2021/12/28 04:37:44;;;;;;;;;2.00;2.00;;;;;11.00;84.00;99020.22;5075561;28;45380;-70
2021/12/28 04:40:11;;;;;;;;;3.25;2.00;;;;;10.94;83.42;99017.09;5066972;27;48224;-70
2021/12/28 04:42:39;;;;;;;;;1.75;1.75;;;;;11.00;83.86;99041.41;5075304;28;45434;-70
2021/12/28 04:45:08;;;;;;;;;1.75;1.50;;;;;10.95;83.51;99047.91;5075887;28;45739;-70
2021/12/28 04:47:34;;;;;;;;;2.00;2.00;;;;;10.87;83.68;99041.28;5072568;28;45356;-70
2021/12/28 04:49:59;;;;;;;;;2.25;2.00;;;;;10.98;83.53;99053.03;5072475;28;45523;-70
2021/12/28 04:52:25;;;;;;;;;2.00;2.00;;;;;10.99;83.55;99049.41;5075060;28;45420;-70
2021/12/28 04:54:50;;;;;;;;;5.00;2.50;;;;;10.86;83.11;99033.47;5075520;28;45376;-70
2021/12/28 04:57:16;;;;;;;;;3.50;2.25;;;;;10.85;83.64;99024.69;5077041;28;46047;-70
2021/12/28 04:59:41;;;;;;;;;3.00;1.75;;;;;11.01;83.74;99042.25;5074365;28;45423;-70
2021/12/28 05:02:07;;;;;;;;;3.50;3.25;;;;;11.00;83.68;99041.41;5071201;28;45563;-70
2021/12/28 05:04:32;;;;;;;;;2.75;2.75;;;;;10.95;83.51;99034.69;5075238;28;45728;-70
2021/12/28 05:06:58;;;;;;;;;3.00;2.00;;;;;10.93;83.78;99025.97;5075030;28;45360;-70
2021/12/28 05:09:23;;;;;;;;;3.00;1.25;;;;;10.84;83.78;99020.31;5075729;28;45880;-69
2021/12/28 05:11:50;;;;;;;;;2.50;2.50;;;;;11.03;83.97;99053.56;5074895;28;45371;-70
2021/12/28 05:14:17;;;;;;;;;2.00;2.00;;;;;11.03;83.54;99050.91;5073905;28;45365;-69
2021/12/28 05:16:43;;;;;;;;;2.00;2.00;;;;;11.06;83.85;99053.38;5075307;27;45831;-70
2021/12/28 05:19:08;;;;;;;;;2.00;1.50;;;;;10.90;83.58;99029.66;5075019;28;45284;-70
2021/12/28 05:21:36;;;;;;;;;2.25;1.25;;;;;11.05;83.63;99047.22;5074836;28;45379;-70
2021/12/28 05:24:02;;;;;;;;;1.50;1.00;;;;;10.93;83.59;99024.19;5076066;28;45469;-69
2021/12/28 05:26:27;;;;;;;;;1.50;1.50;;;;;11.08;83.15;99048.84;5075067;28;45256;-70
2021/12/28 05:28:53;;;;;;;;;4.25;2.25;;;;;11.08;83.60;99048.84;5074467;28;45495;-70
2021/12/28 05:31:18;;;;;;;;;1.50;1.50;;;;;11.00;83.42;99035.22;5073275;28;45498;-70
2021/12/28 05:33:44;;;;;;;;;2.00;2.00;;;;;11.05;83.70;99043.72;5075241;28;45839;-70
2021/12/28 05:36:10;;;;;;;;;0.00;0.00;;;;;11.11;83.78;99049.47;5058969;28;45289;-70
2021/12/28 05:38:36;;;;;;;;;2.50;2.50;;;;;11.13;83.75;99038.81;5064482;28;45450;-70
2021/12/28 05:41:02;;;;;;;;;2.00;1.00;;;;;11.04;83.55;99028.81;5071759;28;45648;-70
2021/12/28 05:43:28;;;;;;;;;3.75;1.25;;;;;11.06;83.56;99037.47;5074024;28;45475;-70
2021/12/28 05:45:53;;;;;;;;;3.75;2.50;;;;;10.80;83.44;98988.88;5073392;28;45558;-70
2021/12/28 05:48:18;;;;;;;;;3.00;2.00;;;;;10.99;83.65;99018.50;5075566;28;46418;-70
2021/12/28 05:50:44;;;;;;;;;4.25;4.25;;;;;11.11;84.08;99030.09;5075452;28;45419;-70
2021/12/28 05:53:09;;;;;;;;;2.25;2.25;;;;;11.02;83.86;99009.50;5056354;28;45789;-70
2021/12/28 05:55:35;;;;;;;;;5.50;3.00;;;;;11.11;83.82;99027.47;5073773;28;45538;-70
2021/12/28 05:58:00;;;;;;;;;5.00;3.50;;;;;11.03;83.51;99020.03;5074632;28;47222;-70
2021/12/28 06:00:28;;;;;;;;;3.75;3.00;;;;;11.13;83.90;99030.88;5071170;28;45595;-70
2021/12/28 06:02:55;;;;;;;;;2.75;2.00;;;;;11.14;83.65;99022.81;5076226;28;45485;-70
2021/12/28 06:05:21;;;;;;;;;1.50;1.50;;;;;11.10;83.58;99023.13;5062747;27;45926;-70
2021/12/28 06:07:46;;;;;;;;;3.00;1.50;;;;;11.09;83.83;99010.84;5073913;28;46048;-70
2021/12/28 06:10:14;;;;;;;;;4.50;2.00;;;;;11.10;83.56;99010.72;5073847;28;45455;-70
2021/12/28 06:12:39;;;;;;;;;1.75;1.75;;;;;11.02;83.95;98991.81;5074366;28;45343;-71
2021/12/28 06:15:05;;;;;;;;;1.75;1.75;;;;;11.00;84.10;98985.81;5073685;28;45401;-70
2021/12/28 06:17:30;;;;;;;;;1.75;1.75;;;;;11.15;84.25;99021.03;5072492;28;45264;-70
2021/12/28 06:19:56;;;;;;;;;2.00;1.50;;;;;10.99;84.02;98997.31;5066027;28;45372;-70
2021/12/28 06:22:21;;;;;;;;;2.00;2.00;;;;;10.69;84.03;98953.34;5074099;28;45407;-70
2021/12/28 06:24:48;;;;;;;;;3.75;2.00;;;;;10.99;84.52;99021.16;5073792;28;45490;-70
2021/12/28 06:27:14;;;;;;;;;4.00;3.00;;;;;10.69;84.40;98973.66;5075811;28;46537;-70
2021/12/28 06:29:39;;;;;;;;;3.00;2.50;;;;;10.60;84.68;98955.72;5062580;28;45477;-70
2021/12/28 06:32:05;;;;;;;;;3.75;3.00;;;;;10.99;84.93;99020.31;5065384;28;45462;-71
2021/12/28 06:34:30;;;;;;;;;4.25;2.25;;;;;10.82;84.89;98995.72;5063020;28;45423;-71
2021/12/28 06:36:55;;;;;;;;;3.00;2.00;;;;;10.92;85.03;99017.19;5073636;28;46014;-71
2021/12/28 06:39:21;;;;;;;;;3.25;3.00;;;;;11.05;84.54;99044.56;5073194;28;45432;-70
2021/12/28 06:41:46;;;;;;;;;1.75;1.75;;;;;10.93;85.05;99026.81;5074241;28;45574;-70
2021/12/28 06:44:11;;;;;;;;;2.50;2.00;;;;;10.91;84.60;99037.53;5070065;28;45489;-71
2021/12/28 06:46:38;;;;;;;;;2.00;2.00;;;;;11.01;85.16;99044.88;5063140;28;46486;-71
2021/12/28 06:49:04;;;;;;;;;3.50;1.00;;;;;11.03;84.51;99056.22;5073550;28;45414;-71
2021/12/28 06:51:30;;;;;;;;;1.00;1.00;;;;;10.93;84.76;99024.19;5054926;28;45542;-71
2021/12/28 06:53:55;;;;;;;;;2.75;1.00;;;;;11.06;84.90;99040.13;5075433;28;45407;-71
2021/12/28 06:56:21;;;;;;;;;1.00;1.00;;;;;10.95;84.62;99030.25;5072243;28;46027;-71
2021/12/28 06:58:47;;;;;;;;;1.25;0.00;;;;;11.05;84.13;99041.09;5072605;28;45399;-71
2021/12/28 07:01:12;;;;;;;;;0.50;0.50;;;;;11.04;84.38;99040.25;5046967;28;45626;-71
2021/12/28 07:03:38;;;;;;;;;3.75;0.00;;;;;11.01;84.42;99034.28;5073772;28;45477;-72
2021/12/28 07:06:03;;;;;;;;;0.25;0.00;;;;;11.08;83.91;99054.13;5075422;28;45440;-71
2021/12/28 07:08:29;;;;;;;;;1.75;0.25;;;;;10.95;84.52;99026.75;5072254;28;45399;-71
2021/12/28 07:10:55;;;;;;;;;0.00;0.00;;;;;11.05;84.29;99041.09;5072732;28;45449;-71
2021/12/28 07:13:20;;;;;;;;;1.00;0.00;;;;;10.87;85.01;99019.28;5072365;28;47608;-71
2021/12/28 07:15:45;;;;;;;;;1.00;1.00;;;;;11.02;85.03;99054.50;5069070;27;45908;-71
2021/12/28 07:18:11;;;;;;;;;0.75;0.00;;;;;10.89;85.14;99028.81;5075387;28;45526;-71
2021/12/28 07:20:37;;;;;;;;;1.00;1.00;;;;;10.86;84.71;99034.31;5040297;28;45501;-71
2021/12/28 07:23:08;;;;;;;;;0.00;0.00;;;;;10.89;85.01;99028.81;5042573;28;45565;-71
2021/12/28 07:25:33;;;;;;;;;1.75;1.00;;;;;11.00;84.71;99045.81;5050167;28;47676;-71
2021/12/28 07:27:59;;;;;;;;;1.50;0.00;;;;;10.88;84.81;99035.06;5045854;28;45440;-71
2021/12/28 07:30:24;;;;;;;;;4.00;2.00;;;;;10.99;84.05;99052.91;5047964;28;45327;-71
2021/12/28 07:32:50;;;;;;;;;0.00;0.00;;;;;10.96;84.42;99046.97;5035258;28;45414;-71
2021/12/28 07:35:21;;;;;;;;;4.75;1.00;;;;;10.91;83.98;99041.94;5049231;28;45428;-71
2021/12/28 07:37:50;;;;;;;;;0.25;0.00;;;;;10.69;83.99;99000.09;5049561;28;45430;-71
2021/12/28 07:40:15;;;;;;;;;0.25;0.25;;;;;11.01;83.39;99050.19;5041425;28;45481;-71
2021/12/28 07:42:41;;;;;;;;;2.50;1.00;;;;;10.97;83.37;99056.59;5048636;28;45465;-71
2021/12/28 07:45:10;;;;;;;;;0.00;0.00;;;;;10.87;83.30;99033.34;5049637;28;46406;-71
2021/12/28 07:47:36;;;;;;;;;3.50;0.50;;;;;10.91;83.27;99042.81;5048285;28;45425;-70
2021/12/28 07:50:03;;;;;;;;;0.50;0.00;;;;;10.95;83.29;99038.19;5048497;28;45366;-70
2021/12/28 07:52:29;;;;;;;;;5.00;2.00;;;;;11.03;82.49;99061.50;5048474;28;45514;-71
2021/12/28 07:54:54;;;;;;;;;2.00;0.00;;;;;10.65;83.14;98988.03;5050124;28;45551;-70
2021/12/28 07:57:19;;;;;;;;;2.00;1.00;;;;;11.04;82.89;99049.97;5038649;28;45483;-70
2021/12/28 07:59:45;;;;;;;;;2.00;1.00;;;;;11.10;82.64;99057.53;5071334;28;45425;-70
2021/12/28 08:02:10;;;;;;;;;1.00;1.00;;;;;11.03;82.50;99037.69;5049670;28;45498;-70
2021/12/28 08:04:36;;;;;;;;;2.00;0.00;;;;;11.00;81.94;99043.16;5066731;28;46093;-70
2021/12/28 08:07:01;;;;;;;;;2.50;1.00;;;;;11.10;81.69;99053.09;5068035;28;45494;-71
2021/12/28 08:09:27;;;;;;;;;2.75;1.00;;;;;11.00;81.50;99036.09;5063556;28;45282;-71
2021/12/28 08:11:52;;;;;;;;;0.75;0.00;;;;;11.00;81.81;99020.22;5074385;28;45566;-71
2021/12/28 08:14:18;;;;;;;;;3.50;1.00;;;;;11.14;81.04;99040.50;5071092;28;45979;-71
2021/12/28 08:16:44;;;;;;;;;2.00;0.25;;;;;11.17;81.03;99050.06;5068667;28;45823;-71
2021/12/28 08:19:10;;;;;;;;;1.00;1.00;;;;;11.09;81.14;99034.66;5072272;28;45386;-71
2021/12/28 08:21:36;;;;;;;;;6.00;2.00;;;;;11.11;80.83;99038.88;5072157;28;45545;-71
2021/12/28 08:24:02;;;;;;;;;2.25;2.00;;;;;11.14;81.01;99059.88;5058490;28;47724;-71
2021/12/28 08:26:27;;;;;;;;;5.00;2.00;;;;;10.83;81.10;98996.59;5074389;28;45739;-71
2021/12/28 08:28:53;;;;;;;;;2.75;1.00;;;;;11.23;81.68;99065.53;5075628;28;45915;-71
2021/12/28 08:31:18;;;;;;;;;1.50;1.25;;;;;11.21;82.02;99068.31;5069936;28;46076;-71
2021/12/28 08:33:44;;;;;;;;;2.00;0.00;;;;;11.16;82.72;99065.09;5075156;28;45736;-71
2021/12/28 08:36:09;;;;;;;;;4.25;0.00;;;;;11.02;82.98;99038.63;5076913;28;45631;-71
2021/12/28 08:38:35;;;;;;;;;5.00;1.00;;;;;11.11;83.39;99054.78;5075345;28;45536;-71
2021/12/28 08:41:00;;;;;;;;;2.00;1.00;;;;;11.08;82.91;99056.78;5056936;28;45481;-71
2021/12/28 08:43:26;;;;;;;;;3.75;0.25;;;;;11.06;82.85;99048.94;5075150;28;46042;-71
2021/12/28 08:45:52;;;;;;;;;4.00;2.75;;;;;10.99;84.11;99044.13;5068472;27;45552;-71
2021/12/28 08:48:18;;;;;;;;;3.50;2.00;;;;;11.09;84.91;99051.41;5077111;28;45399;-71
2021/12/28 08:50:43;;;;;;;;;2.75;2.50;;;;;11.11;84.04;99061.88;5075108;27;45379;-71
2021/12/28 08:53:11;;;;;;;;;4.50;4.50;;;;;11.19;84.30;99069.34;5074540;28;45435;-71
2021/12/28 08:55:38;;;;;;;;;5.00;2.00;;;;;11.20;84.34;99071.88;5075507;28;45482;-71
2021/12/28 08:58:03;;;;;;;;;2.50;0.75;;;;;11.20;84.21;99076.34;5074651;27;45481;-71
2021/12/28 09:00:32;;;;;;;;;3.00;2.00;;;;;11.16;84.61;99077.47;5073533;28;45363;-71
2021/12/28 09:02:59;;;;;;;;;3.00;1.75;;;;;11.03;84.79;99075.63;5056536;28;47380;-71
2021/12/28 09:05:26;;;;;;;;;1.75;1.00;;;;;10.98;85.03;99084.78;5060048;28;45419;-70
2021/12/28 09:07:52;;;;;;;;;3.25;1.50;;;;;11.06;84.86;99112.47;5059436;28;45895;-71
2021/12/28 09:10:18;;;;;;;;;2.00;0.00;;;;;11.07;84.89;99115.97;5069004;28;45751;-71
2021/12/28 09:12:44;;;;;;;;;1.50;0.75;;;;;11.05;85.12;99117.84;5072270;27;46319;-71
2021/12/28 09:15:09;;;;;;;;;3.75;1.00;;;;;11.05;84.48;99104.63;5075339;28;45436;-71
2021/12/28 09:17:37;;;;;;;;;3.50;1.50;;;;;11.05;83.23;99097.53;5073072;28;45358;-71
2021/12/28 09:20:06;;;;;;;;;9.50;1.00;;;;;11.06;81.68;99098.38;5074901;28;45972;-71
2021/12/28 09:22:32;;;;;;;;;7.75;0.00;;;;;11.07;81.48;99105.38;5068819;28;47694;-71
2021/12/28 09:24:57;;;;;;;;;4.25;3.00;;;;;10.93;79.38;99076.28;5055888;28;45543;-71
2021/12/28 09:27:23;;;;;;;;;7.00;3.00;;;;;11.03;79.32;99103.84;5075801;28;45273;-70
2021/12/28 09:29:48;;;;;;;;;7.75;3.25;;;;;11.04;79.55;99100.28;5072009;28;45748;-70
2021/12/28 09:32:14;;;;;;;;;5.50;3.75;;;;;11.01;78.90;99096.03;5070731;28;46028;-70
2021/12/28 09:34:42;;;;;;;;;8.50;4.50;;;;;11.07;78.04;99079.75;5071242;28;45388;-71
2021/12/28 09:37:07;;;;;;;;;9.25;3.00;;;;;10.97;77.48;99091.88;5061879;28;45362;-70
2021/12/28 09:39:32;;;;;;;;;10.75;5.75;;;;;11.02;77.18;99095.06;5072939;28;45324;-71
2021/12/28 09:42:01;;;;;;;;;15.00;5.50;;;;;11.10;77.54;99113.13;5075892;28;45291;-71
2021/12/28 09:44:30;;;;;;;;;13.75;6.00;;;;;11.02;75.71;99120.69;5068535;28;45399;-70
2021/12/28 09:46:56;;;;;;;;;20.50;8.50;;;;;11.16;74.05;99139.22;5067292;28;45489;-71
2021/12/28 09:49:22;;;;;;;;;19.75;9.75;;;;;11.13;75.30;99121.72;5066449;28;45510;-70
2021/12/28 09:51:47;;;;;;;;;16.50;6.75;;;;;11.22;74.50;99144.13;5056050;28;47593;-70
2021/12/28 09:54:14;;;;;;;;;15.00;5.75;;;;;11.20;74.76;99159.25;5076451;28;45413;-71
2021/12/28 09:56:39;;;;;;;;;13.00;4.50;;;;;11.13;74.67;99166.75;5073292;28;45315;-71
2021/12/28 09:59:05;;;;;;;;;11.75;9.00;;;;;11.18;73.70;99166.47;5074153;28;45531;-71
2021/12/28 10:01:30;;;;;;;;;12.00;5.50;;;;;11.17;72.33;99161.25;5070163;28;45840;-71
2021/12/28 10:03:57;;;;;;;;;19.50;8.00;;;;;11.12;72.85;99153.63;5074162;28;45483;-71
2021/12/28 10:06:27;;;;;;;;;14.50;9.25;;;;;10.94;73.44;99131.75;5075188;28;45674;-71
2021/12/28 10:09:14;;;;;;;;;13.25;6.75;;;;;11.10;72.53;99156.34;5075592;28;45784;-71
2021/12/28 10:11:48;;;;;;;;;17.00;8.25;;;;;11.03;72.16;99149.72;5072710;28;46718;-71
2021/12/28 10:14:21;;;;;;;;;22.50;7.00;;;;;11.24;72.25;99197.03;5071983;28;45460;-71
2021/12/28 10:16:59;;;;;;;;;21.00;8.50;;;;;11.25;72.85;99188.13;5070265;28;45284;-70
2021/12/28 10:19:41;;;;;;;;;16.25;7.25;;;;;11.26;72.54;99201.25;5073785;28;45371;-70
2021/12/28 10:22:18;;;;;;;;;15.50;8.75;;;;;11.26;72.76;99185.34;5070961;27;45521;-70
2021/12/28 10:24:44;;;;;;;;;15.50;8.00;;;;;10.90;71.87;99106.41;5069421;28;45604;-71
2021/12/28 10:27:11;;;;;;;;;14.25;4.50;;;;;11.32;71.91;99141.75;5063495;28;45364;-70
2021/12/28 10:29:36;;;;;;;;;19.00;8.50;;;;;11.42;70.84;99129.66;5071424;28;45528;-70
2021/12/28 10:32:16;;;;;;;;;21.75;9.75;;;;;11.72;70.81;99161.28;5069794;28;45752;-71
2021/12/28 10:35:05;;;;;;;;;15.50;5.75;;;;;11.76;70.11;99170.72;5065970;28;45431;-71
2021/12/28 10:37:34;;;;;;;;;11.50;8.00;;;;;11.81;70.12;99173.94;5072331;28;45516;-71
2021/12/28 10:40:01;;;;;;;;;17.25;8.00;;;;;11.40;69.46;99083.00;5073297;28;45444;-71
2021/12/28 10:42:50;;;;;;;;;16.00;10.50;;;;;11.89;68.63;99172.66;5073735;28;45433;-72
2021/12/28 10:45:22;;;;;;;;;16.00;8.00;;;;;11.92;68.73;99191.00;5064697;27;45381;-71
2021/12/28 10:47:49;;;;;;;;;17.50;8.25;;;;;11.86;68.49;99188.75;5072283;27;45521;-70
2021/12/28 10:50:26;;;;;;;;;16.00;9.50;;;;;11.80;68.64;99189.97;5070918;28;45535;-71
2021/12/28 10:53:01;;;;;;;;;22.00;8.00;;;;;11.75;68.84;99187.59;5061895;28;45563;-71
2021/12/28 10:55:28;;;;;;;;;20.50;14.00;;;;;11.73;68.68;99193.94;5071917;28;45535;-71
2021/12/28 10:57:53;;;;;;;;;11.25;5.25;;;;;11.63;68.51;99201.63;5073298;28;45603;-71
2021/12/28 11:00:31;;;;;;;;;15.50;9.00;;;;;11.55;68.46;99156.22;5074726;28;45435;-71
2021/12/28 11:03:11;;;;;;;;;21.75;13.75;;;;;11.69;69.07;99189.78;5071887;28;45497;-71
2021/12/28 11:05:37;;;;;;;;;21.75;13.50;;;;;11.51;69.21;99170.59;5068473;28;45545;-71
2021/12/28 11:08:07;;;;;;;;;18.75;10.25;;;;;11.67;69.22;99189.88;5066841;28;45502;-71
2021/12/28 11:10:34;;;;;;;;;16.25;6.00;;;;;11.62;67.53;99209.66;5066102;27;45571;-71
2021/12/28 11:12:59;;;;;;;;;7.50;4.25;;;;;11.42;68.37;99176.50;5064095;27;45645;-71
2021/12/28 11:15:25;;;;;;;;;22.75;10.25;;;;;11.43;69.13;99204.66;5066006;28;45753;-72
2021/12/28 11:17:51;;;;;;;;;16.75;10.75;;;;;11.45;69.28;99203.63;5069837;28;45501;-72
2021/12/28 11:20:17;;;;;;;;;22.50;7.00;;;;;11.30;69.65;99202.78;5064784;28;45400;-72
2021/12/28 11:23:08;;;;;;;;;8.75;8.50;;;;;11.39;70.06;99187.28;5069808;28;46447;-72
2021/12/28 11:25:33;;;;;;;;;14.50;5.75;;;;;11.42;70.30;99209.13;5050264;28;45710;-72
2021/12/28 11:28:19;;;;;;;;;20.75;11.00;;;;;11.43;70.69;99192.25;5050147;28;45479;-72
2021/12/28 11:31:15;;;;;;;;;15.00;8.25;;;;;11.41;70.61;99195.94;5062316;27;45926;-71
2021/12/28 11:33:50;;;;;;;;;18.25;9.00;;;;;11.47;71.30;99174.38;5062993;28;46252;-71